sensor_id;sensor_type;location;lat;lon;timestamp;temperature;humidity
27647;DHT22;42229;51.230;6.240;2022-10-22T00:01:50;14.80;99.90
27647;DHT22;42229;51.230;6.240;2022-10-22T00:04:17;14.80;99.90
27647;DHT22;42229;51.230;6.240;2022-10-22T00:06:43;14.80;99.90
27647;DHT22;42229;51.230;6.240;2022-10-22T00:09:10;14.80;99.90
27647;DHT22;42229;51.230;6.240;2022-10-22T00:11:37;14.90;99.90
27647;DHT22;42229;51.230;6.240;2022-10-22T00:14:04;14.90;99.90
27647;DHT22;42229;51.230;6.240;2022-10-22T00:16:30;14.90;99.90
27647;DHT22;42229;51.230;6.240;2022-10-22T00:18:56;15.00;99.90
27647;DHT22;42229;51.230;6.240;2022-10-22T00:21:22;15.00;99.90
27647;DHT22;42229;51.230;6.240;2022-10-22T00:23:50;15.00;99.90
27647;DHT22;42229;51.230;6.240;2022-10-22T00:26:16;15.00;99.90
27647;DHT22;42229;51.230;6.240;2022-10-22T00:28:42;15.00;99.90
27647;DHT22;42229;51.230;6.240;2022-10-22T00:31:09;15.00;99.90
27647;DHT22;42229;51.230;6.240;2022-10-22T00:33:35;15.00;99.90
27647;DHT22;42229;51.230;6.240;2022-10-22T00:36:01;15.00;99.90
27647;DHT22;42229;51.230;6.240;2022-10-22T00:38:27;15.00;99.90
27647;DHT22;42229;51.230;6.240;2022-10-22T00:40:54;15.00;99.90
27647;DHT22;42229;51.230;6.240;2022-10-22T00:43:20;15.00;99.90
27647;DHT22;42229;51.230;6.240;2022-10-22T00:45:47;14.90;99.90
27647;DHT22;42229;51.230;6.240;2022-10-22T00:48:24;14.90;99.90
27647;DHT22;42229;51.230;6.240;2022-10-22T00:50:56;14.90;99.90
27647;DHT22;42229;51.230;6.240;2022-10-22T00:53:28;14.80;99.90
27647;DHT22;42229;51.230;6.240;2022-10-22T00:55:57;14.80;99.90
27647;DHT22;42229;51.230;6.240;2022-10-22T00:58:25;14.80;99.90
27647;DHT22;42229;51.230;6.240;2022-10-22T01:00:53;14.80;99.90
27647;DHT22;42229;51.230;6.240;2022-10-22T01:03:19;14.80;99.90
27647;DHT22;42229;51.230;6.240;2022-10-22T01:05:50;14.70;99.90
27647;DHT22;42229;51.230;6.240;2022-10-22T01:08:42;14.70;99.90
27647;DHT22;42229;51.230;6.240;2022-10-22T01:14:07;14.70;99.90
27647;DHT22;42229;51.230;6.240;2022-10-22T01:19:36;14.60;99.90
27647;DHT22;42229;51.230;6.240;2022-10-22T01:22:34;14.60;99.90
27647;DHT22;42229;51.230;6.240;2022-10-22T01:26:05;14.60;99.90
27647;DHT22;42229;51.230;6.240;2022-10-22T01:31:14;14.50;99.90
27647;DHT22;42229;51.230;6.240;2022-10-22T01:33:42;14.40;99.90
27647;DHT22;42229;51.230;6.240;2022-10-22T01:36:09;14.40;99.90
27647;DHT22;42229;51.230;6.240;2022-10-22T01:38:37;14.40;99.90
27647;DHT22;42229;51.230;6.240;2022-10-22T01:41:04;14.40;99.90
27647;DHT22;42229;51.230;6.240;2022-10-22T01:43:31;14.30;99.90
27647;DHT22;42229;51.230;6.240;2022-10-22T01:45:59;14.20;99.90
27647;DHT22;42229;51.230;6.240;2022-10-22T01:51:08;14.20;99.90
27647;DHT22;42229;51.230;6.240;2022-10-22T01:53:51;14.10;99.90
27647;DHT22;42229;51.230;6.240;2022-10-22T01:59:40;14.10;99.90
27647;DHT22;42229;51.230;6.240;2022-10-22T02:02:11;14.00;99.90
27647;DHT22;42229;51.230;6.240;2022-10-22T02:04:42;14.00;99.90
27647;DHT22;42229;51.230;6.240;2022-10-22T02:07:12;14.00;99.90
27647;DHT22;42229;51.230;6.240;2022-10-22T02:09:40;13.90;99.90
27647;DHT22;42229;51.230;6.240;2022-10-22T02:12:07;13.90;99.90
27647;DHT22;42229;51.230;6.240;2022-10-22T02:14:35;13.90;99.90
27647;DHT22;42229;51.230;6.240;2022-10-22T02:17:03;13.80;99.90
27647;DHT22;42229;51.230;6.240;2022-10-22T02:19:51;13.80;99.90
27647;DHT22;42229;51.230;6.240;2022-10-22T02:22:19;13.80;99.90
27647;DHT22;42229;51.230;6.240;2022-10-22T02:24:46;13.90;99.90
27647;DHT22;42229;51.230;6.240;2022-10-22T02:30:01;13.90;99.90
27647;DHT22;42229;51.230;6.240;2022-10-22T02:32:30;13.90;99.90
27647;DHT22;42229;51.230;6.240;2022-10-22T02:34:59;13.90;99.90
27647;DHT22;42229;51.230;6.240;2022-10-22T02:37:25;13.90;99.90
27647;DHT22;42229;51.230;6.240;2022-10-22T02:39:52;13.90;99.90
27647;DHT22;42229;51.230;6.240;2022-10-22T02:42:22;13.90;99.90
27647;DHT22;42229;51.230;6.240;2022-10-22T02:44:49;13.90;99.90
27647;DHT22;42229;51.230;6.240;2022-10-22T02:47:15;14.00;99.90
27647;DHT22;42229;51.230;6.240;2022-10-22T02:49:41;14.00;99.90
27647;DHT22;42229;51.230;6.240;2022-10-22T02:52:08;14.10;99.90
27647;DHT22;42229;51.230;6.240;2022-10-22T02:54:34;14.00;99.90
27647;DHT22;42229;51.230;6.240;2022-10-22T02:57:00;14.10;99.90
27647;DHT22;42229;51.230;6.240;2022-10-22T02:59:26;14.10;99.90
27647;DHT22;42229;51.230;6.240;2022-10-22T03:01:53;14.10;99.90
27647;DHT22;42229;51.230;6.240;2022-10-22T03:04:19;14.10;99.90
27647;DHT22;42229;51.230;6.240;2022-10-22T03:06:45;14.20;99.90
27647;DHT22;42229;51.230;6.240;2022-10-22T03:09:14;14.20;99.90
27647;DHT22;42229;51.230;6.240;2022-10-22T03:11:41;14.20;99.90
27647;DHT22;42229;51.230;6.240;2022-10-22T03:14:07;14.20;99.90
27647;DHT22;42229;51.230;6.240;2022-10-22T03:16:33;14.20;99.90
27647;DHT22;42229;51.230;6.240;2022-10-22T03:18:59;14.20;99.90
27647;DHT22;42229;51.230;6.240;2022-10-22T03:24:23;14.30;99.90
27647;DHT22;42229;51.230;6.240;2022-10-22T03:26:52;14.20;99.90
27647;DHT22;42229;51.230;6.240;2022-10-22T03:29:19;14.30;99.90
27647;DHT22;42229;51.230;6.240;2022-10-22T03:31:47;14.20;99.90
27647;DHT22;42229;51.230;6.240;2022-10-22T03:34:13;14.20;99.90
27647;DHT22;42229;51.230;6.240;2022-10-22T03:36:39;14.30;99.90
27647;DHT22;42229;51.230;6.240;2022-10-22T03:39:06;14.20;99.90
27647;DHT22;42229;51.230;6.240;2022-10-22T03:41:32;14.20;99.90
27647;DHT22;42229;51.230;6.240;2022-10-22T03:43:59;14.20;99.90
27647;DHT22;42229;51.230;6.240;2022-10-22T03:46:27;14.20;99.90
27647;DHT22;42229;51.230;6.240;2022-10-22T03:48:53;14.20;99.90
27647;DHT22;42229;51.230;6.240;2022-10-22T03:51:19;14.20;99.90
27647;DHT22;42229;51.230;6.240;2022-10-22T03:53:45;14.20;99.90
27647;DHT22;42229;51.230;6.240;2022-10-22T03:56:12;14.20;99.90
27647;DHT22;42229;51.230;6.240;2022-10-22T03:58:39;14.20;99.90
27647;DHT22;42229;51.230;6.240;2022-10-22T04:01:06;14.10;99.90
27647;DHT22;42229;51.230;6.240;2022-10-22T04:03:33;14.10;99.90
27647;DHT22;42229;51.230;6.240;2022-10-22T04:06:00;14.00;99.90
27647;DHT22;42229;51.230;6.240;2022-10-22T04:08:30;14.00;99.90
27647;DHT22;42229;51.230;6.240;2022-10-22T04:10:56;14.00;99.90
27647;DHT22;42229;51.230;6.240;2022-10-22T04:13:22;14.00;99.90
27647;DHT22;42229;51.230;6.240;2022-10-22T04:15:48;13.90;99.90
27647;DHT22;42229;51.230;6.240;2022-10-22T04:18:17;13.90;99.90
27647;DHT22;42229;51.230;6.240;2022-10-22T04:20:44;13.90;99.90
27647;DHT22;42229;51.230;6.240;2022-10-22T04:23:10;13.80;99.90
27647;DHT22;42229;51.230;6.240;2022-10-22T04:25:37;13.80;99.90
27647;DHT22;42229;51.230;6.240;2022-10-22T04:28:07;13.80;99.90
27647;DHT22;42229;51.230;6.240;2022-10-22T04:30:34;13.80;99.90
27647;DHT22;42229;51.230;6.240;2022-10-22T04:33:01;13.70;99.90
27647;DHT22;42229;51.230;6.240;2022-10-22T04:35:28;13.70;99.90
27647;DHT22;42229;51.230;6.240;2022-10-22T04:37:54;13.70;99.90
27647;DHT22;42229;51.230;6.240;2022-10-22T04:40:21;13.70;99.90
27647;DHT22;42229;51.230;6.240;2022-10-22T04:42:47;13.70;99.90
27647;DHT22;42229;51.230;6.240;2022-10-22T04:45:13;13.70;99.90
27647;DHT22;42229;51.230;6.240;2022-10-22T04:47:40;13.70;99.90
27647;DHT22;42229;51.230;6.240;2022-10-22T04:50:06;13.70;99.90
27647;DHT22;42229;51.230;6.240;2022-10-22T04:52:33;13.70;99.90
27647;DHT22;42229;51.230;6.240;2022-10-22T04:54:59;13.70;99.90
27647;DHT22;42229;51.230;6.240;2022-10-22T04:57:28;13.70;99.90
27647;DHT22;42229;51.230;6.240;2022-10-22T04:59:55;13.80;99.90
27647;DHT22;42229;51.230;6.240;2022-10-22T05:02:22;13.70;99.90
27647;DHT22;42229;51.230;6.240;2022-10-22T05:04:48;13.80;99.90
27647;DHT22;42229;51.230;6.240;2022-10-22T05:07:14;13.80;99.90
27647;DHT22;42229;51.230;6.240;2022-10-22T05:09:40;13.80;99.90
27647;DHT22;42229;51.230;6.240;2022-10-22T05:12:07;13.80;99.90
27647;DHT22;42229;51.230;6.240;2022-10-22T05:14:33;13.80;99.90
27647;DHT22;42229;51.230;6.240;2022-10-22T05:16:59;13.80;99.90
27647;DHT22;42229;51.230;6.240;2022-10-22T05:19:26;13.90;99.90
27647;DHT22;42229;51.230;6.240;2022-10-22T05:21:55;13.90;99.90
27647;DHT22;42229;51.230;6.240;2022-10-22T05:24:23;13.90;99.90
27647;DHT22;42229;51.230;6.240;2022-10-22T05:26:51;13.90;99.90
27647;DHT22;42229;51.230;6.240;2022-10-22T05:29:18;13.90;99.90
27647;DHT22;42229;51.230;6.240;2022-10-22T05:31:44;14.00;99.90
27647;DHT22;42229;51.230;6.240;2022-10-22T05:34:11;14.00;99.90
27647;DHT22;42229;51.230;6.240;2022-10-22T05:36:38;14.10;99.90
27647;DHT22;42229;51.230;6.240;2022-10-22T05:39:04;14.00;99.90
27647;DHT22;42229;51.230;6.240;2022-10-22T05:41:31;14.10;99.90
27647;DHT22;42229;51.230;6.240;2022-10-22T05:43:58;14.10;99.90
27647;DHT22;42229;51.230;6.240;2022-10-22T05:46:26;14.20;99.90
27647;DHT22;42229;51.230;6.240;2022-10-22T05:49:00;14.20;99.90
27647;DHT22;42229;51.230;6.240;2022-10-22T05:51:29;14.30;99.90
27647;DHT22;42229;51.230;6.240;2022-10-22T05:53:58;14.30;99.90
27647;DHT22;42229;51.230;6.240;2022-10-22T05:56:27;14.40;99.90
27647;DHT22;42229;51.230;6.240;2022-10-22T05:58:53;14.50;99.90
27647;DHT22;42229;51.230;6.240;2022-10-22T06:01:24;14.70;99.90
27647;DHT22;42229;51.230;6.240;2022-10-22T06:03:52;14.70;99.90
27647;DHT22;42229;51.230;6.240;2022-10-22T06:06:21;14.90;99.90
27647;DHT22;42229;51.230;6.240;2022-10-22T06:08:49;14.90;99.90
27647;DHT22;42229;51.230;6.240;2022-10-22T06:11:17;14.90;99.90
27647;DHT22;42229;51.230;6.240;2022-10-22T06:13:44;15.00;99.90
27647;DHT22;42229;51.230;6.240;2022-10-22T06:16:11;15.00;99.90
27647;DHT22;42229;51.230;6.240;2022-10-22T06:18:37;15.10;99.90
27647;DHT22;42229;51.230;6.240;2022-10-22T06:21:04;15.10;99.90
27647;DHT22;42229;51.230;6.240;2022-10-22T06:23:32;15.20;99.90
27647;DHT22;42229;51.230;6.240;2022-10-22T06:25:58;15.30;99.90
27647;DHT22;42229;51.230;6.240;2022-10-22T06:28:24;15.30;99.90
27647;DHT22;42229;51.230;6.240;2022-10-22T06:30:51;15.30;99.90
27647;DHT22;42229;51.230;6.240;2022-10-22T06:33:17;15.40;99.90
27647;DHT22;42229;51.230;6.240;2022-10-22T06:35:43;15.40;99.90
27647;DHT22;42229;51.230;6.240;2022-10-22T06:38:10;15.50;99.90
27647;DHT22;42229;51.230;6.240;2022-10-22T06:40:36;15.50;99.90
27647;DHT22;42229;51.230;6.240;2022-10-22T06:43:03;15.50;99.90
27647;DHT22;42229;51.230;6.240;2022-10-22T06:45:31;15.60;99.90
27647;DHT22;42229;51.230;6.240;2022-10-22T06:47:57;15.60;99.90
27647;DHT22;42229;51.230;6.240;2022-10-22T06:50:24;15.70;99.90
27647;DHT22;42229;51.230;6.240;2022-10-22T06:52:50;15.70;99.90
27647;DHT22;42229;51.230;6.240;2022-10-22T06:55:16;15.70;99.90
27647;DHT22;42229;51.230;6.240;2022-10-22T06:57:42;15.80;99.90
27647;DHT22;42229;51.230;6.240;2022-10-22T07:00:09;15.70;99.90
27647;DHT22;42229;51.230;6.240;2022-10-22T07:02:35;15.80;99.90
27647;DHT22;42229;51.230;6.240;2022-10-22T07:05:01;15.80;99.90
27647;DHT22;42229;51.230;6.240;2022-10-22T07:07:27;15.80;99.90
27647;DHT22;42229;51.230;6.240;2022-10-22T07:09:54;15.80;99.90
27647;DHT22;42229;51.230;6.240;2022-10-22T07:12:20;15.80;99.90
27647;DHT22;42229;51.230;6.240;2022-10-22T07:14:47;15.80;99.90
27647;DHT22;42229;51.230;6.240;2022-10-22T07:17:14;15.90;99.90
27647;DHT22;42229;51.230;6.240;2022-10-22T07:19:40;15.90;99.90
27647;DHT22;42229;51.230;6.240;2022-10-22T07:22:06;15.90;99.90
27647;DHT22;42229;51.230;6.240;2022-10-22T07:24:32;16.00;99.90
27647;DHT22;42229;51.230;6.240;2022-10-22T07:26:59;16.00;99.90
27647;DHT22;42229;51.230;6.240;2022-10-22T07:29:25;16.10;99.90
27647;DHT22;42229;51.230;6.240;2022-10-22T07:31:51;16.20;99.90
27647;DHT22;42229;51.230;6.240;2022-10-22T07:34:17;16.20;99.90
27647;DHT22;42229;51.230;6.240;2022-10-22T07:36:44;16.30;99.90
27647;DHT22;42229;51.230;6.240;2022-10-22T07:39:10;16.40;99.90
27647;DHT22;42229;51.230;6.240;2022-10-22T07:41:36;16.50;99.90
27647;DHT22;42229;51.230;6.240;2022-10-22T07:44:02;16.50;99.90
27647;DHT22;42229;51.230;6.240;2022-10-22T07:46:29;16.60;99.90
27647;DHT22;42229;51.230;6.240;2022-10-22T07:48:55;16.60;99.90
27647;DHT22;42229;51.230;6.240;2022-10-22T07:51:21;16.80;99.90
27647;DHT22;42229;51.230;6.240;2022-10-22T07:53:47;16.80;99.90
27647;DHT22;42229;51.230;6.240;2022-10-22T07:56:13;16.90;99.90
27647;DHT22;42229;51.230;6.240;2022-10-22T07:58:40;16.90;99.90
27647;DHT22;42229;51.230;6.240;2022-10-22T08:01:06;16.90;99.90
27647;DHT22;42229;51.230;6.240;2022-10-22T08:03:33;17.00;99.90
27647;DHT22;42229;51.230;6.240;2022-10-22T08:05:59;17.00;99.90
27647;DHT22;42229;51.230;6.240;2022-10-22T08:08:26;17.10;99.90
27647;DHT22;42229;51.230;6.240;2022-10-22T08:10:52;17.10;99.90
27647;DHT22;42229;51.230;6.240;2022-10-22T08:13:18;17.10;99.90
27647;DHT22;42229;51.230;6.240;2022-10-22T08:15:45;17.20;99.90
27647;DHT22;42229;51.230;6.240;2022-10-22T08:18:12;17.20;99.90
27647;DHT22;42229;51.230;6.240;2022-10-22T08:20:38;17.30;99.90
27647;DHT22;42229;51.230;6.240;2022-10-22T08:23:04;17.20;99.90
27647;DHT22;42229;51.230;6.240;2022-10-22T08:25:30;17.20;99.90
27647;DHT22;42229;51.230;6.240;2022-10-22T08:27:57;17.30;99.90
27647;DHT22;42229;51.230;6.240;2022-10-22T08:30:23;17.40;99.90
27647;DHT22;42229;51.230;6.240;2022-10-22T08:32:52;17.40;99.90
27647;DHT22;42229;51.230;6.240;2022-10-22T08:35:18;17.60;99.90
27647;DHT22;42229;51.230;6.240;2022-10-22T08:37:44;17.60;99.90
27647;DHT22;42229;51.230;6.240;2022-10-22T08:40:17;17.80;99.90
27647;DHT22;42229;51.230;6.240;2022-10-22T08:45:47;18.00;99.90
27647;DHT22;42229;51.230;6.240;2022-10-22T08:51:03;18.10;99.90
27647;DHT22;42229;51.230;6.240;2022-10-22T08:53:31;18.20;99.90
27647;DHT22;42229;51.230;6.240;2022-10-22T08:56:02;18.30;99.90
27647;DHT22;42229;51.230;6.240;2022-10-22T08:58:31;18.40;99.90
27647;DHT22;42229;51.230;6.240;2022-10-22T09:01:02;18.40;99.90
27647;DHT22;42229;51.230;6.240;2022-10-22T09:03:57;18.50;99.90
27647;DHT22;42229;51.230;6.240;2022-10-22T09:06:31;18.50;99.90
27647;DHT22;42229;51.230;6.240;2022-10-22T09:08:58;18.60;99.90
27647;DHT22;42229;51.230;6.240;2022-10-22T09:14:00;18.70;99.90
27647;DHT22;42229;51.230;6.240;2022-10-22T09:24:36;18.90;99.90
27647;DHT22;42229;51.230;6.240;2022-10-22T09:27:09;19.00;99.90
27647;DHT22;42229;51.230;6.240;2022-10-22T09:29:37;19.00;99.90
27647;DHT22;42229;51.230;6.240;2022-10-22T09:32:03;19.10;99.90
27647;DHT22;42229;51.230;6.240;2022-10-22T09:34:29;19.10;99.90
27647;DHT22;42229;51.230;6.240;2022-10-22T09:37:00;19.20;99.90
27647;DHT22;42229;51.230;6.240;2022-10-22T09:39:30;19.30;99.90
27647;DHT22;42229;51.230;6.240;2022-10-22T09:41:58;19.40;99.90
27647;DHT22;42229;51.230;6.240;2022-10-22T09:44:25;19.50;99.90
27647;DHT22;42229;51.230;6.240;2022-10-22T09:46:51;19.50;99.90
27647;DHT22;42229;51.230;6.240;2022-10-22T09:49:18;19.70;99.90
27647;DHT22;42229;51.230;6.240;2022-10-22T09:51:51;19.70;99.90
27647;DHT22;42229;51.230;6.240;2022-10-22T09:54:19;19.70;99.90
27647;DHT22;42229;51.230;6.240;2022-10-22T09:56:54;19.70;99.90
27647;DHT22;42229;51.230;6.240;2022-10-22T09:59:29;19.80;99.90
27647;DHT22;42229;51.230;6.240;2022-10-22T10:02:08;19.80;99.90
27647;DHT22;42229;51.230;6.240;2022-10-22T10:04:41;19.80;99.90
27647;DHT22;42229;51.230;6.240;2022-10-22T10:07:21;19.90;99.90
27647;DHT22;42229;51.230;6.240;2022-10-22T10:09:49;19.90;99.90
27647;DHT22;42229;51.230;6.240;2022-10-22T10:15:11;19.90;99.90
27647;DHT22;42229;51.230;6.240;2022-10-22T10:17:55;20.00;99.90
27647;DHT22;42229;51.230;6.240;2022-10-22T10:20:37;20.00;99.90
27647;DHT22;42229;51.230;6.240;2022-10-22T10:28:51;20.00;99.90
27647;DHT22;42229;51.230;6.240;2022-10-22T10:31:30;20.10;99.90
27647;DHT22;42229;51.230;6.240;2022-10-22T10:34:11;20.10;99.90
27647;DHT22;42229;51.230;6.240;2022-10-22T10:54:03;20.20;99.90
27647;DHT22;42229;51.230;6.240;2022-10-22T10:56:41;20.20;99.90
27647;DHT22;42229;51.230;6.240;2022-10-22T11:04:49;20.20;99.90
27647;DHT22;42229;51.230;6.240;2022-10-22T11:07:24;20.20;99.90
27647;DHT22;42229;51.230;6.240;2022-10-22T11:10:02;20.20;99.90
27647;DHT22;42229;51.230;6.240;2022-10-22T11:12:45;20.20;99.90
27647;DHT22;42229;51.230;6.240;2022-10-22T11:15:26;20.30;99.90
27647;DHT22;42229;51.230;6.240;2022-10-22T11:17:56;20.20;99.90
27647;DHT22;42229;51.230;6.240;2022-10-22T11:20:37;20.30;99.90
27647;DHT22;42229;51.230;6.240;2022-10-22T11:23:21;20.20;99.90
27647;DHT22;42229;51.230;6.240;2022-10-22T11:25:50;20.20;99.90
27647;DHT22;42229;51.230;6.240;2022-10-22T11:28:22;20.20;99.90
27647;DHT22;42229;51.230;6.240;2022-10-22T11:31:04;20.20;99.90
27647;DHT22;42229;51.230;6.240;2022-10-22T11:33:37;20.20;99.90
27647;DHT22;42229;51.230;6.240;2022-10-22T11:36:08;20.20;99.90
27647;DHT22;42229;51.230;6.240;2022-10-22T11:38:35;20.20;99.90
27647;DHT22;42229;51.230;6.240;2022-10-22T11:41:10;20.10;99.90
27647;DHT22;42229;51.230;6.240;2022-10-22T11:48:59;20.20;99.90
27647;DHT22;42229;51.230;6.240;2022-10-22T11:51:35;20.20;99.90
27647;DHT22;42229;51.230;6.240;2022-10-22T11:59:44;20.20;99.90
27647;DHT22;42229;51.230;6.240;2022-10-22T12:02:23;20.30;99.90
27647;DHT22;42229;51.230;6.240;2022-10-22T12:05:18;20.30;99.90
27647;DHT22;42229;51.230;6.240;2022-10-22T12:10:36;20.40;99.90
27647;DHT22;42229;51.230;6.240;2022-10-22T12:13:20;20.40;99.90
27647;DHT22;42229;51.230;6.240;2022-10-22T12:15:52;20.40;99.90
27647;DHT22;42229;51.230;6.240;2022-10-22T12:18:21;20.50;99.90
27647;DHT22;42229;51.230;6.240;2022-10-22T12:20:52;20.70;99.90
27647;DHT22;42229;51.230;6.240;2022-10-22T12:23:19;20.80;99.90
27647;DHT22;42229;51.230;6.240;2022-10-22T12:25:49;21.00;99.90
27647;DHT22;42229;51.230;6.240;2022-10-22T12:28:16;21.10;99.90
27647;DHT22;42229;51.230;6.240;2022-10-22T12:30:43;21.30;99.90
27647;DHT22;42229;51.230;6.240;2022-10-22T12:33:22;21.50;99.90
27647;DHT22;42229;51.230;6.240;2022-10-22T12:35:48;21.70;99.90
27647;DHT22;42229;51.230;6.240;2022-10-22T12:38:19;21.90;99.90
27647;DHT22;42229;51.230;6.240;2022-10-22T12:40:47;22.20;99.90
27647;DHT22;42229;51.230;6.240;2022-10-22T12:43:16;22.40;99.90
27647;DHT22;42229;51.230;6.240;2022-10-22T12:45:45;22.50;99.90
27647;DHT22;42229;51.230;6.240;2022-10-22T12:50:57;22.70;99.90
27647;DHT22;42229;51.230;6.240;2022-10-22T12:55:59;22.70;99.90
27647;DHT22;42229;51.230;6.240;2022-10-22T12:58:28;22.70;99.90
27647;DHT22;42229;51.230;6.240;2022-10-22T13:00:59;22.60;99.90
27647;DHT22;42229;51.230;6.240;2022-10-22T13:03:30;22.50;99.90
27647;DHT22;42229;51.230;6.240;2022-10-22T13:08:43;22.30;99.90
27647;DHT22;42229;51.230;6.240;2022-10-22T13:11:22;22.20;99.90
27647;DHT22;42229;51.230;6.240;2022-10-22T13:13:48;22.10;99.90
27647;DHT22;42229;51.230;6.240;2022-10-22T13:16:16;21.90;99.90
27647;DHT22;42229;51.230;6.240;2022-10-22T13:18:45;21.80;99.90
27647;DHT22;42229;51.230;6.240;2022-10-22T13:21:21;21.60;99.90
27647;DHT22;42229;51.230;6.240;2022-10-22T13:23:56;21.60;99.90
27647;DHT22;42229;51.230;6.240;2022-10-22T13:26:29;21.50;99.90
27647;DHT22;42229;51.230;6.240;2022-10-22T13:28:57;21.40;99.90
27647;DHT22;42229;51.230;6.240;2022-10-22T13:31:26;21.40;99.90
27647;DHT22;42229;51.230;6.240;2022-10-22T13:33:58;21.30;99.90
27647;DHT22;42229;51.230;6.240;2022-10-22T13:36:26;21.20;99.90
27647;DHT22;42229;51.230;6.240;2022-10-22T13:38:52;21.20;99.90
27647;DHT22;42229;51.230;6.240;2022-10-22T13:43:47;21.20;99.90
27647;DHT22;42229;51.230;6.240;2022-10-22T13:46:13;21.20;99.90
27647;DHT22;42229;51.230;6.240;2022-10-22T13:48:40;21.20;99.90
27647;DHT22;42229;51.230;6.240;2022-10-22T13:51:10;21.20;99.90
27647;DHT22;42229;51.230;6.240;2022-10-22T13:53:39;21.20;99.90
27647;DHT22;42229;51.230;6.240;2022-10-22T13:56:05;21.20;99.90
27647;DHT22;42229;51.230;6.240;2022-10-22T13:58:32;21.30;99.90
27647;DHT22;42229;51.230;6.240;2022-10-22T14:00:58;21.30;99.90
27647;DHT22;42229;51.230;6.240;2022-10-22T14:03:25;21.40;99.90
27647;DHT22;42229;51.230;6.240;2022-10-22T14:05:54;21.40;99.90
27647;DHT22;42229;51.230;6.240;2022-10-22T14:08:21;21.60;99.90
27647;DHT22;42229;51.230;6.240;2022-10-22T14:10:48;21.90;99.90
27647;DHT22;42229;51.230;6.240;2022-10-22T14:13:15;22.40;99.90
27647;DHT22;42229;51.230;6.240;2022-10-22T14:15:42;22.80;99.90
27647;DHT22;42229;51.230;6.240;2022-10-22T14:18:18;23.20;99.90
27647;DHT22;42229;51.230;6.240;2022-10-22T14:20:51;23.50;99.90
27647;DHT22;42229;51.230;6.240;2022-10-22T14:23:20;23.80;99.90
27647;DHT22;42229;51.230;6.240;2022-10-22T14:25:48;24.00;99.90
27647;DHT22;42229;51.230;6.240;2022-10-22T14:28:15;24.20;99.90
27647;DHT22;42229;51.230;6.240;2022-10-22T14:30:42;24.10;99.90
27647;DHT22;42229;51.230;6.240;2022-10-22T14:33:11;23.90;99.90
27647;DHT22;42229;51.230;6.240;2022-10-22T14:35:39;23.80;99.90
27647;DHT22;42229;51.230;6.240;2022-10-22T14:38:05;23.60;99.90
27647;DHT22;42229;51.230;6.240;2022-10-22T14:40:31;23.50;99.90
27647;DHT22;42229;51.230;6.240;2022-10-22T14:42:58;23.40;99.90
27647;DHT22;42229;51.230;6.240;2022-10-22T14:45:25;23.50;99.90
27647;DHT22;42229;51.230;6.240;2022-10-22T14:47:52;23.50;99.90
27647;DHT22;42229;51.230;6.240;2022-10-22T14:50:23;23.60;99.90
27647;DHT22;42229;51.230;6.240;2022-10-22T14:52:50;23.80;99.90
27647;DHT22;42229;51.230;6.240;2022-10-22T14:55:19;24.00;99.90
27647;DHT22;42229;51.230;6.240;2022-10-22T14:57:45;24.20;99.90
27647;DHT22;42229;51.230;6.240;2022-10-22T15:00:13;24.30;99.90
27647;DHT22;42229;51.230;6.240;2022-10-22T15:02:40;24.50;99.90
27647;DHT22;42229;51.230;6.240;2022-10-22T15:05:07;24.60;99.90
27647;DHT22;42229;51.230;6.240;2022-10-22T15:07:33;24.70;99.90
27647;DHT22;42229;51.230;6.240;2022-10-22T15:10:00;24.70;99.90
27647;DHT22;42229;51.230;6.240;2022-10-22T15:12:26;24.50;99.90
27647;DHT22;42229;51.230;6.240;2022-10-22T15:14:52;24.40;99.90
27647;DHT22;42229;51.230;6.240;2022-10-22T15:17:19;24.30;99.90
27647;DHT22;42229;51.230;6.240;2022-10-22T15:19:45;24.10;99.90
27647;DHT22;42229;51.230;6.240;2022-10-22T15:22:11;23.90;99.90
27647;DHT22;42229;51.230;6.240;2022-10-22T15:24:38;23.70;99.90
27647;DHT22;42229;51.230;6.240;2022-10-22T15:27:04;23.50;99.90
27647;DHT22;42229;51.230;6.240;2022-10-22T15:29:31;23.40;99.90
27647;DHT22;42229;51.230;6.240;2022-10-22T15:31:57;23.20;99.90
27647;DHT22;42229;51.230;6.240;2022-10-22T15:34:25;23.00;99.90
27647;DHT22;42229;51.230;6.240;2022-10-22T15:36:53;22.80;99.90
27647;DHT22;42229;51.230;6.240;2022-10-22T15:39:23;22.60;99.90
27647;DHT22;42229;51.230;6.240;2022-10-22T15:41:50;22.40;99.90
27647;DHT22;42229;51.230;6.240;2022-10-22T15:44:18;22.30;99.90
27647;DHT22;42229;51.230;6.240;2022-10-22T15:46:54;22.10;99.90
27647;DHT22;42229;51.230;6.240;2022-10-22T15:49:24;21.90;99.90
27647;DHT22;42229;51.230;6.240;2022-10-22T15:51:53;21.80;99.90
27647;DHT22;42229;51.230;6.240;2022-10-22T15:54:20;21.60;99.90
27647;DHT22;42229;51.230;6.240;2022-10-22T15:56:50;21.50;99.90
27647;DHT22;42229;51.230;6.240;2022-10-22T15:59:17;21.40;99.90
27647;DHT22;42229;51.230;6.240;2022-10-22T16:01:43;21.30;99.90
27647;DHT22;42229;51.230;6.240;2022-10-22T16:04:10;21.20;99.90
27647;DHT22;42229;51.230;6.240;2022-10-22T16:06:38;21.10;99.90
27647;DHT22;42229;51.230;6.240;2022-10-22T16:09:10;20.90;99.90
27647;DHT22;42229;51.230;6.240;2022-10-22T16:11:38;20.80;99.90
27647;DHT22;42229;51.230;6.240;2022-10-22T16:14:04;20.70;99.90
27647;DHT22;42229;51.230;6.240;2022-10-22T16:16:31;20.50;99.90
27647;DHT22;42229;51.230;6.240;2022-10-22T16:19:00;20.40;99.90
27647;DHT22;42229;51.230;6.240;2022-10-22T16:21:26;20.30;99.90
27647;DHT22;42229;51.230;6.240;2022-10-22T16:23:53;20.10;99.90
27647;DHT22;42229;51.230;6.240;2022-10-22T16:26:19;19.90;99.90
27647;DHT22;42229;51.230;6.240;2022-10-22T16:28:46;19.80;99.90
27647;DHT22;42229;51.230;6.240;2022-10-22T16:31:13;19.70;99.90
27647;DHT22;42229;51.230;6.240;2022-10-22T16:33:40;19.50;99.90
27647;DHT22;42229;51.230;6.240;2022-10-22T16:36:08;19.40;99.90
27647;DHT22;42229;51.230;6.240;2022-10-22T16:38:35;19.20;99.90
27647;DHT22;42229;51.230;6.240;2022-10-22T16:41:08;19.10;99.90
27647;DHT22;42229;51.230;6.240;2022-10-22T16:43:41;18.90;99.90
27647;DHT22;42229;51.230;6.240;2022-10-22T16:46:09;18.80;99.90
27647;DHT22;42229;51.230;6.240;2022-10-22T16:48:36;18.70;99.90
27647;DHT22;42229;51.230;6.240;2022-10-22T16:51:06;18.60;99.90
27647;DHT22;42229;51.230;6.240;2022-10-22T16:53:34;18.50;99.90
27647;DHT22;42229;51.230;6.240;2022-10-22T16:56:01;18.40;99.90
27647;DHT22;42229;51.230;6.240;2022-10-22T16:58:27;18.40;99.90
27647;DHT22;42229;51.230;6.240;2022-10-22T17:00:53;18.30;99.90
27647;DHT22;42229;51.230;6.240;2022-10-22T17:03:20;18.20;99.90
27647;DHT22;42229;51.230;6.240;2022-10-22T17:05:46;18.20;99.90
27647;DHT22;42229;51.230;6.240;2022-10-22T17:08:12;18.10;99.90
27647;DHT22;42229;51.230;6.240;2022-10-22T17:10:39;18.10;99.90
27647;DHT22;42229;51.230;6.240;2022-10-22T17:13:06;18.00;99.90